Time;durP1;ratioP1;P1;durP2;ratioP2;P2;SDS_P1;SDS_P2;PMS_P1;PMS_P2;Temp;Humidity;BMP_temperature;BMP_pressure;BME280_temperature;BME280_humidity;BME280_pressure;Samples;Min_cycle;Max_cycle;Signal;HPM_P1;HPM_P2
2021/12/26 00:00:17;;;;;;;31.23;25.92;;;;;;;5.74;84.26;100398.09;4988341;28;20064;-85
2021/12/26 00:02:44;;;;;;;31.75;26.80;;;;;;;4.82;84.13;100249.34;4971797;28;20054;-85
2021/12/26 00:05:12;;;;;;;30.13;26.92;;;;;;;4.48;83.66;100188.59;4973290;28;20042;-86
2021/12/26 00:07:39;;;;;;;28.38;24.83;;;;;;;5.94;83.68;100430.09;4974546;28;20057;-86
2021/12/26 00:10:11;;;;;;;30.40;25.35;;;;;;;5.67;84.09;100375.78;4988897;28;20477;-87
2021/12/26 00:12:37;;;;;;;28.77;25.30;;;;;;;5.09;83.95;100274.63;4988001;28;20054;-88
2021/12/26 00:15:06;;;;;;;28.73;25.65;;;;;;;5.67;84.28;100369.66;4972345;28;20065;-85
2021/12/26 00:17:36;;;;;;;29.40;25.48;;;;;;;4.84;84.17;100228.19;4972768;28;20434;-88
2021/12/26 00:20:05;;;;;;;30.15;25.55;;;;;;;4.92;84.07;100237.22;4970855;28;20050;-86
2021/12/26 00:22:34;;;;;;;27.25;24.33;;;;;;;5.40;84.42;100304.03;4972402;28;20054;-86
2021/12/26 00:25:02;;;;;;;30.52;26.10;;;;;;;5.41;84.39;100287.28;4971742;28;20525;-84
2021/12/26 00:27:29;;;;;;;26.80;24.00;;;;;;;6.09;84.19;100400.00;4991915;28;20569;-86
2021/12/26 00:29:56;;;;;;;29.65;25.70;;;;;;;5.93;83.88;100370.41;4989290;28;20076;-85
2021/12/26 00:32:23;;;;;;;29.10;26.05;;;;;;;5.96;84.13;100367.56;4992729;28;20584;-84
2021/12/26 00:34:51;;;;;;;27.08;23.75;;;;;;;6.16;84.45;100403.84;4973931;28;20047;-87
2021/12/26 00:37:18;;;;;;;27.85;24.05;;;;;;;4.37;83.80;100104.44;4974009;28;20457;-85
2021/12/26 00:39:45;;;;;;;30.35;25.60;;;;;;;5.87;84.61;100336.59;4973917;28;20479;-86
2021/12/26 00:42:11;;;;;;;25.80;23.05;;;;;;;5.75;84.72;100318.13;4991227;28;20410;-86
2021/12/26 00:44:40;;;;;;;29.25;24.23;;;;;;;6.22;84.32;100385.91;4991126;28;20585;-88
2021/12/26 00:47:08;;;;;;;28.13;24.23;;;;;;;6.22;84.41;100385.91;4974043;28;20074;-87
2021/12/26 00:49:35;;;;;;;24.58;21.98;;;;;;;6.07;83.92;100362.38;4973946;28;20054;-86
2021/12/26 00:52:06;;;;;;;25.38;22.73;;;;;;;6.02;84.16;100346.06;4990963;28;20478;-87
2021/12/26 00:54:34;;;;;;;26.80;23.17;;;;;;;6.22;83.86;100383.28;4974120;28;20042;-85
2021/12/26 00:57:02;;;;;;;26.95;22.73;;;;;;;5.77;83.18;100313.56;4973799;28;20305;-86
2021/12/26 00:59:28;;;;;;;24.60;21.60;;;;;;;6.43;83.65;100415.94;4973691;28;20054;-87
2021/12/26 01:01:56;;;;;;;27.77;22.30;;;;;;;6.32;83.55;100387.75;4990808;28;20093;-87
2021/12/26 01:04:23;;;;;;;26.08;22.42;;;;;;;5.31;83.36;100222.13;4973851;28;20786;-86
2021/12/26 01:06:50;;;;;;;25.65;22.48;;;;;;;4.78;82.90;100126.06;4990949;28;20050;-85
2021/12/26 01:09:27;;;;;;;27.63;23.17;;;;;;;6.22;83.08;100370.94;4973992;28;20065;-86
2021/12/26 01:12:00;;;;;;;24.30;21.73;;;;;;;6.33;83.32;100380.66;4973736;28;20152;-87
2021/12/26 01:14:30;;;;;;;26.58;23.77;;;;;;;6.52;83.09;100414.41;4973301;28;20077;-87
2021/12/26 01:17:11;;;;;;;25.92;23.15;;;;;;;6.33;82.87;100384.13;4973680;28;20046;-86
2021/12/26 01:19:45;;;;;;;26.55;23.75;;;;;;;6.52;83.20;100424.97;4973210;28;20078;-87
2021/12/26 01:22:13;;;;;;;25.05;22.50;;;;;;;6.55;82.61;100445.84;4973013;28;20060;-86
2021/12/26 01:24:39;;;;;;;25.13;21.92;;;;;;;6.24;82.86;100383.97;4990289;28;20050;-86
2021/12/26 01:27:12;;;;;;;25.88;22.90;;;;;;;6.08;82.67;100357.94;4990711;28;20169;-85
2021/12/26 01:29:41;;;;;;;25.77;22.92;;;;;;;6.11;82.91;100348.00;4973024;28;20053;-85
2021/12/26 01:32:07;;;;;;;27.58;23.25;;;;;;;6.60;82.18;100446.31;4972821;28;20406;-86
2021/12/26 01:34:34;;;;;;;25.55;22.85;;;;;;;5.65;82.04;100297.81;4973218;28;20057;-85
2021/12/26 01:37:01;;;;;;;27.52;24.33;;;;;;;6.37;81.74;100426.94;4973311;28;20078;-86
2021/12/26 01:39:28;;;;;;;25.30;22.48;;;;;;;6.50;82.97;100448.81;4989903;28;20437;-87
2021/12/26 01:42:00;;;;;;;27.92;23.98;;;;;;;6.30;82.48;100423.09;4973064;28;20128;-85
2021/12/26 01:44:28;;;;;;;26.33;22.75;;;;;;;5.55;82.01;100316.91;4990517;28;20073;-85
2021/12/26 01:46:55;;;;;;;25.33;22.60;;;;;;;5.27;82.19;100278.59;4973168;28;20050;-86
2021/12/26 01:49:28;;;;;;;24.60;21.77;;;;;;;6.23;81.97;100445.59;4973615;28;20488;-85
2021/12/26 01:52:00;;;;;;;29.48;24.13;;;;;;;6.21;82.15;100458.88;4973482;28;20108;-86
2021/12/26 01:57:00;;;;;;;26.15;23.35;;;;;;;4.92;82.78;100258.25;4990950;28;20132;-86
2021/12/26 01:59:28;;;;;;;28.67;25.58;;;;;;;4.44;82.63;100176.66;4974130;28;20054;-85
2021/12/26 02:01:57;;;;;;;27.58;24.52;;;;;;;4.32;82.24;100166.13;4990639;28;20148;-84
2021/12/26 02:04:31;;;;;;;27.55;24.75;;;;;;;5.72;82.39;100410.50;4973141;28;20054;-85
2021/12/26 02:07:00;;;;;;;25.00;22.35;;;;;;;5.68;82.98;100416.13;4990024;28;20081;-84
2021/12/26 02:09:28;;;;;;;25.63;22.88;;;;;;;5.23;82.88;100342.94;4992200;28;20078;-84
2021/12/26 02:11:55;;;;;;;26.50;23.70;;;;;;;5.83;82.62;100433.47;4975080;28;20286;-84
2021/12/26 02:14:22;;;;;;;25.25;22.55;;;;;;;5.25;82.94;100338.41;4992457;28;20050;-86
2021/12/26 02:16:49;;;;;;;27.23;23.70;;;;;;;5.32;83.45;100360.72;4995799;28;20141;-86
2021/12/26 02:19:19;;;;;;;26.80;24.05;;;;;;;4.81;83.37;100276.59;4996731;28;20130;-87
2021/12/26 02:22:09;;;;;;;28.52;25.42;;;;;;;4.02;83.18;100147.13;4981351;28;20105;-84
2021/12/26 02:25:30;;;;;;;27.60;24.77;;;;;;;4.63;83.25;100262.09;4972357;28;20093;-88
2021/12/26 02:27:42;;;;;;;29.02;25.30;;;;;;;5.33;83.82;100396.59;4986406;28;20093;-84
2021/12/26 02:30:15;;;;;;;28.20;25.20;;;;;;;5.68;83.78;100456.47;4972266;28;20476;-85
2021/12/26 02:32:47;;;;;;;27.05;23.98;;;;;;;5.70;84.26;100453.72;4971428;28;20485;-86
2021/12/26 02:35:14;;;;;;;28.00;25.00;;;;;;;5.69;83.90;100452.06;4971787;28;20046;-85
2021/12/26 02:37:41;;;;;;;29.25;25.85;;;;;;;5.52;84.05;100413.75;4988730;28;20153;-83
2021/12/26 02:40:08;;;;;;;30.00;26.83;;;;;;;5.27;83.98;100389.16;4971768;28;20410;-85
2021/12/26 02:42:35;;;;;;;28.40;24.77;;;;;;;5.65;84.30;100456.69;4971637;28;20120;-84
2021/12/26 02:45:03;;;;;;;28.50;24.75;;;;;;;5.45;84.07;100417.75;4972025;28;20058;-85
2021/12/26 02:47:32;;;;;;;32.15;28.05;;;;;;;5.60;84.36;100461.44;4988305;28;20046;-84
2021/12/26 02:50:05;;;;;;;30.38;26.67;;;;;;;5.50;84.62;100440.16;4988023;28;20513;-85
2021/12/26 02:52:34;;;;;;;29.58;26.10;;;;;;;5.39;84.57;100423.44;4971593;28;20141;-87
2021/12/26 02:55:01;;;;;;;32.63;27.08;;;;;;;5.62;84.77;100445.53;4970187;28;20145;-87
2021/12/26 02:57:27;;;;;;;30.25;26.92;;;;;;;5.56;84.22;100449.44;4971150;28;20050;-87
2021/12/26 02:59:54;;;;;;;31.55;27.02;;;;;;;5.51;84.18;100443.63;4971543;28;20418;-85
2021/12/26 03:02:23;;;;;;;30.15;26.88;;;;;;;5.41;84.34;100424.19;4987955;28;20449;-85
2021/12/26 03:04:50;;;;;;;28.75;25.67;;;;;;;5.09;84.76;100369.38;4987505;28;20046;-86
2021/12/26 03:07:16;;;;;;;29.42;25.83;;;;;;;5.37;84.20;100409.56;4987819;28;20453;-87
2021/12/26 03:09:46;;;;;;;32.47;28.38;;;;;;;5.15;83.69;100368.94;4987430;28;20072;-86
2021/12/26 03:12:14;;;;;;;31.23;27.65;;;;;;;5.24;83.90;100392.00;4987997;28;20050;-85
2021/12/26 03:14:45;;;;;;;32.45;26.67;;;;;;;5.57;84.12;100453.75;4988400;28;20058;-88
2021/12/26 03:17:11;;;;;;;32.97;27.00;;;;;;;5.41;84.16;100413.66;4971267;28;20508;-87
2021/12/26 03:19:38;;;;;;;31.38;27.75;;;;;;;4.91;83.51;100339.94;4971363;28;20046;-85
2021/12/26 03:22:07;;;;;;;29.95;26.33;;;;;;;5.24;83.90;100396.41;4970990;28;20100;-84
2021/12/26 03:24:35;;;;;;;31.30;27.17;;;;;;;4.50;84.14;100289.22;4970952;28;20046;-85
2021/12/26 03:27:03;;;;;;;32.00;27.05;;;;;;;4.44;83.63;100268.63;4971265;28;20226;-85
2021/12/26 03:29:30;;;;;;;30.50;26.50;;;;;;;5.66;84.17;100457.53;4970601;28;20061;-87
2021/12/26 03:31:57;;;;;;;32.90;27.08;;;;;;;5.45;83.99;100423.03;4971038;28;20057;-86
2021/12/26 03:34:24;;;;;;;29.95;26.85;;;;;;;5.30;84.46;100395.97;4970945;28;20297;-86
2021/12/26 03:36:56;;;;;;;30.20;26.42;;;;;;;5.14;83.89;100346.19;4987869;28;20133;-85
2021/12/26 03:39:23;;;;;;;28.55;25.45;;;;;;;5.43;84.21;100388.06;4970677;28;20050;-87
2021/12/26 03:41:50;;;;;;;29.35;26.08;;;;;;;5.80;83.54;100417.88;4988056;28;20137;-86
2021/12/26 03:44:17;;;;;;;31.40;26.63;;;;;;;5.63;83.34;100391.91;4970677;28;20341;-88
2021/12/26 03:46:44;;;;;;;29.55;25.90;;;;;;;5.87;83.58;100434.09;4970555;28;20050;-85
2021/12/26 03:49:13;;;;;;;28.70;25.73;;;;;;;5.66;83.07;100410.97;4986925;28;20085;-86
2021/12/26 03:51:39;;;;;;;27.13;24.02;;;;;;;5.91;83.43;100449.56;4987243;28;20300;-87
2021/12/26 03:54:08;;;;;;;28.60;25.20;;;;;;;5.70;83.61;100407.16;4987434;28;20312;-86
2021/12/26 03:56:34;;;;;;;27.33;24.20;;;;;;;5.93;83.51;100441.56;4970290;28;20399;-86
2021/12/26 03:59:01;;;;;;;29.40;25.05;;;;;;;5.57;83.09;100354.53;4988046;28;20057;-87
2021/12/26 04:01:28;;;;;;;27.33;24.42;;;;;;;6.18;82.54;100452.03;4970692;28;20202;-86
2021/12/26 04:03:55;;;;;;;27.60;24.52;;;;;;;5.71;82.06;100369.34;4970615;28;20700;-86
2021/12/26 04:06:22;;;;;;;27.25;24.30;;;;;;;5.84;82.23;100411.44;4969616;28;20072;-87
2021/12/26 04:08:49;;;;;;;26.92;24.05;;;;;;;6.07;82.02;100451.13;4989018;28;20042;-85
2021/12/26 04:11:15;;;;;;;25.48;22.73;;;;;;;5.77;82.58;100403.13;4981052;28;20061;-87
2021/12/26 04:13:43;;;;;;;27.63;24.58;;;;;;;5.47;83.00;100365.84;4991900;28;20644;-84
2021/12/26 04:16:09;;;;;;;25.73;22.42;;;;;;;5.20;82.69;100324.72;4993094;28;20042;-86
2021/12/26 04:18:38;;;;;;;24.73;21.85;;;;;;;6.02;83.18;100447.97;4976017;28;20050;-88
2021/12/26 04:21:05;;;;;;;24.52;21.88;;;;;;;4.62;83.29;100207.84;4974934;28;20084;-87
2021/12/26 04:23:34;;;;;;;26.77;23.25;;;;;;;5.27;83.23;100318.09;4990445;28;20081;-88
2021/12/26 04:26:00;;;;;;;23.65;21.15;;;;;;;4.32;83.30;100177.50;4990607;28;20078;-86
2021/12/26 04:28:27;;;;;;;24.65;22.05;;;;;;;5.19;83.59;100311.66;4973316;28;20107;-86
2021/12/26 04:30:54;;;;;;;25.88;22.25;;;;;;;4.27;83.40;100151.53;4993203;28;20122;-86
2021/12/26 04:33:22;;;;;;;25.08;22.45;;;;;;;6.01;83.81;100446.31;4976566;28;20054;-86
2021/12/26 04:35:49;;;;;;;25.38;22.67;;;;;;;5.98;83.98;100437.66;4972954;28;20101;-85
2021/12/26 04:38:16;;;;;;;23.75;21.25;;;;;;;5.37;83.78;100338.50;4988818;28;20586;-85
2021/12/26 04:40:43;;;;;;;31.20;27.83;;;;;;;5.71;84.14;100398.31;4969844;28;20054;-85
2021/12/26 04:43:09;;;;;;;24.27;21.75;;;;;;;5.89;84.04;100440.09;4987041;28;20113;-85
2021/12/26 04:45:39;;;;;;;24.90;22.30;;;;;;;5.56;84.13;100378.34;4987772;28;20209;-85
2021/12/26 04:48:06;;;;;;;24.75;22.08;;;;;;;5.73;83.92;100425.38;4987678;28;20042;-87
2021/12/26 04:50:35;;;;;;;26.27;21.70;;;;;;;5.53;84.05;100386.44;4987359;28;20050;-86
2021/12/26 04:53:02;;;;;;;23.30;20.80;;;;;;;5.80;84.34;100409.97;4987686;28;20047;-85
2021/12/26 04:55:28;;;;;;;23.98;21.38;;;;;;;5.86;83.77;100424.50;4970095;28;20454;-86
2021/12/26 04:57:58;;;;;;;25.38;22.13;;;;;;;5.73;83.56;100400.84;4969561;28;20193;-87
2021/12/26 05:00:32;;;;;;;27.02;22.73;;;;;;;5.86;83.67;100422.72;4970060;28;20046;-86
2021/12/26 05:03:03;;;;;;;25.65;22.90;;;;;;;5.77;83.58;100408.38;4969672;28;20145;-86
2021/12/26 05:05:32;;;;;;;26.02;23.08;;;;;;;6.01;83.76;100441.88;4970380;28;20442;-87
2021/12/26 05:07:59;;;;;;;25.45;21.98;;;;;;;5.42;83.64;100328.47;4969608;28;20050;-86
2021/12/26 05:10:29;;;;;;;24.15;21.60;;;;;;;6.06;83.64;100426.56;4987468;28;20050;-87
2021/12/26 05:12:57;;;;;;;22.85;20.38;;;;;;;5.75;83.78;100372.56;4970129;28;20541;-86
2021/12/26 05:15:25;;;;;;;22.75;20.38;;;;;;;5.73;84.03;100372.72;4986932;28;20676;-88
2021/12/26 05:17:53;;;;;;;23.15;20.65;;;;;;;5.87;84.14;100389.28;4970954;28;20525;-87
2021/12/26 05:20:24;;;;;;;20.98;18.77;;;;;;;5.55;83.87;100350.31;4973680;28;20161;-86
2021/12/26 05:22:53;;;;;;;25.52;20.48;;;;;;;6.02;84.08;100418.97;4973149;28;20062;-86
2021/12/26 05:25:20;;;;;;;24.90;21.33;;;;;;;5.82;84.49;100379.09;4972667;28;20606;-86
2021/12/26 05:27:48;;;;;;;22.05;19.70;;;;;;;5.90;84.32;100399.63;4990825;28;20163;-88
2021/12/26 05:30:16;;;;;;;25.08;22.27;;;;;;;4.74;83.80;100201.72;4991910;28;20145;-86
2021/12/26 05:32:44;;;;;;;23.35;20.85;;;;;;;6.03;84.20;100404.88;4991765;28;20069;-85
2021/12/26 05:35:14;;;;;;;22.42;20.02;;;;;;;6.02;84.20;100396.13;5008996;28;20080;-87
2021/12/26 05:37:41;;;;;;;22.05;19.13;;;;;;;5.45;83.71;100315.91;5008772;28;20067;-85
2021/12/26 05:40:09;;;;;;;24.85;21.15;;;;;;;5.84;83.87;100386.88;4991547;28;20504;-87
2021/12/26 05:42:37;;;;;;;22.90;20.40;;;;;;;5.75;83.83;100386.63;4975557;28;20054;-88
2021/12/26 05:45:07;;;;;;;22.10;19.23;;;;;;;5.75;84.10;100385.75;4984455;28;20378;-85
2021/12/26 05:47:34;;;;;;;22.38;20.08;;;;;;;5.95;84.30;100421.25;4982597;28;20054;-87
2021/12/26 05:50:04;;;;;;;22.70;20.30;;;;;;;5.68;84.40;100382.75;5009188;28;20060;-86
2021/12/26 05:52:31;;;;;;;22.67;20.27;;;;;;;5.60;84.53;100365.78;5009027;28;20046;-85
2021/12/26 05:54:58;;;;;;;25.98;23.35;;;;;;;5.62;84.45;100362.09;5008738;28;20108;-87
2021/12/26 05:57:26;;;;;;;24.23;20.92;;;;;;;5.28;84.31;100300.50;4991210;28;20050;-87
2021/12/26 05:59:53;;;;;;;24.70;22.08;;;;;;;4.74;84.34;100203.50;5008843;28;20116;-87
2021/12/26 06:02:20;;;;;;;22.02;19.83;;;;;;;4.76;84.05;100220.84;4990991;28;20068;-86
2021/12/26 06:04:47;;;;;;;25.02;21.90;;;;;;;5.25;84.35;100312.09;4991414;28;20578;-86
2021/12/26 06:07:13;;;;;;;23.88;21.40;;;;;;;5.06;84.63;100259.09;4991496;28;20100;-86
2021/12/26 06:09:40;;;;;;;25.05;22.35;;;;;;;5.73;84.72;100370.06;4991449;28;20473;-86
2021/12/26 06:12:07;;;;;;;24.58;22.08;;;;;;;4.65;84.60;100199.72;4991103;28;20042;-86
2021/12/26 06:14:34;;;;;;;24.00;21.40;;;;;;;4.28;84.41;100120.84;4991156;28;20045;-86
2021/12/26 06:17:01;;;;;;;24.45;21.80;;;;;;;4.73;84.38;100200.00;4990804;28;20485;-86
2021/12/26 06:19:27;;;;;;;27.80;22.42;;;;;;;5.95;84.64;100408.91;4991037;28;20046;-86
2021/12/26 06:21:54;;;;;;;23.27;20.13;;;;;;;6.08;84.25;100419.38;4991165;28;20123;-85
2021/12/26 06:24:21;;;;;;;24.27;21.70;;;;;;;6.05;84.55;100416.16;4991080;28;20096;-86
2021/12/26 06:26:47;;;;;;;24.65;22.15;;;;;;;5.92;84.43;100395.06;4977238;28;20054;-87
2021/12/26 06:29:14;;;;;;;24.05;21.55;;;;;;;6.12;84.48;100412.13;4970607;28;20054;-86
2021/12/26 06:31:43;;;;;;;26.58;23.65;;;;;;;5.46;83.74;100320.25;4971515;28;20117;-88
2021/12/26 06:34:10;;;;;;;26.77;23.48;;;;;;;5.51;83.49;100327.78;4971404;28;20042;-85
2021/12/26 06:36:37;;;;;;;26.63;23.60;;;;;;;5.75;83.13;100373.44;4971684;28;20186;-84
2021/12/26 06:39:04;;;;;;;27.63;24.10;;;;;;;6.08;83.20;100432.56;4971736;28;20081;-88
2021/12/26 06:41:31;;;;;;;26.83;23.92;;;;;;;5.74;83.07;100392.81;4972145;28;20140;-87
2021/12/26 06:43:58;;;;;;;27.27;24.38;;;;;;;5.49;82.79;100350.78;4990729;28;20053;-86
2021/12/26 06:46:25;;;;;;;27.17;24.30;;;;;;;5.74;83.01;100403.34;4990092;28;20082;-87
2021/12/26 06:48:52;;;;;;;28.17;24.55;;;;;;;5.89;82.94;100437.44;4993372;28;20070;-85
2021/12/26 06:51:19;;;;;;;28.20;24.77;;;;;;;5.95;82.99;100448.44;4978118;28;20042;-89
2021/12/26 06:53:46;;;;;;;26.45;23.58;;;;;;;5.00;83.26;100286.69;4973444;28;20644;-87
2021/12/26 06:56:13;;;;;;;29.77;24.88;;;;;;;5.89;83.21;100432.19;4973843;28;20060;-86
2021/12/26 06:58:39;;;;;;;25.88;23.13;;;;;;;4.99;83.11;100278.88;4988669;28;20142;-87
2021/12/26 07:01:06;;;;;;;27.88;24.85;;;;;;;6.03;83.02;100453.16;4971560;28;20046;-85
2021/12/26 07:03:33;;;;;;;24.85;22.20;;;;;;;5.62;83.71;100388.44;4988806;28;20521;-87
2021/12/26 07:06:03;;;;;;;27.83;24.65;;;;;;;5.77;83.71;100424.19;4971390;28;20090;-86
2021/12/26 07:08:29;;;;;;;26.48;23.58;;;;;;;5.26;83.48;100341.88;4970578;28;20395;-87
2021/12/26 07:10:59;;;;;;;26.35;23.65;;;;;;;5.38;83.53;100363.84;4969396;28;20137;-86
2021/12/26 07:13:26;;;;;;;25.33;22.70;;;;;;;5.09;83.71;100314.09;4968546;28;20108;-86
2021/12/26 07:15:53;;;;;;;27.90;24.00;;;;;;;4.53;83.81;100219.84;4986075;28;20144;-86
2021/12/26 07:18:19;;;;;;;26.33;23.55;;;;;;;5.84;84.14;100432.50;4985928;28;20073;-89
2021/12/26 07:20:47;;;;;;;25.67;22.88;;;;;;;5.04;83.30;100301.28;4985811;28;20422;-87
2021/12/26 07:23:13;;;;;;;27.50;24.50;;;;;;;4.38;82.92;100195.47;4995143;28;20141;-84
2021/12/26 07:25:40;;;;;;;25.65;22.95;;;;;;;4.34;82.85;100193.97;4986402;28;20537;-86
2021/12/26 07:28:07;;;;;;;26.30;23.25;;;;;;;4.82;83.41;100295.84;4988544;28;20706;-86
2021/12/26 07:30:33;;;;;;;26.77;23.17;;;;;;;5.16;82.86;100348.75;4970900;28;20461;-86
2021/12/26 07:33:03;;;;;;;27.33;24.35;;;;;;;5.25;83.20;100375.25;4971016;28;20050;-87
2021/12/26 07:35:30;;;;;;;26.45;23.65;;;;;;;5.56;83.19;100431.03;4970945;28;20453;-86
2021/12/26 07:37:57;;;;;;;27.10;23.90;;;;;;;5.65;83.51;100446.13;4988057;28;20502;-86
2021/12/26 07:40:24;;;;;;;24.52;21.95;;;;;;;5.73;83.46;100470.16;4992106;28;20046;-88
2021/12/26 07:42:51;;;;;;;27.98;24.15;;;;;;;5.31;83.87;100393.22;4987640;28;20038;-88
2021/12/26 07:45:18;;;;;;;26.77;23.88;;;;;;;5.97;83.45;100493.09;5013334;28;20034;-88
2021/12/26 07:47:45;;;;;;;25.70;22.98;;;;;;;3.89;82.94;100159.44;4977004;28;20112;-86
2021/12/26 07:50:11;;;;;;;27.45;24.55;;;;;;;5.40;83.07;100406.72;4971027;28;20082;-85
2021/12/26 07:52:41;;;;;;;30.23;23.85;;;;;;;5.96;83.32;100487.00;4970996;28;20138;-86
2021/12/26 07:55:13;;;;;;;27.60;23.50;;;;;;;5.76;83.67;100464.69;4970753;28;20064;-88
2021/12/26 07:57:47;;;;;;;26.83;23.27;;;;;;;5.26;83.74;100395.34;4988021;28;20074;-86
2021/12/26 08:00:17;;;;;;;26.90;23.00;;;;;;;5.75;83.45;100476.16;4970935;28;20496;-86
2021/12/26 08:02:44;;;;;;;28.85;25.75;;;;;;;5.97;83.54;100506.28;4987963;28;20425;-85
2021/12/26 08:05:10;;;;;;;28.08;24.52;;;;;;;5.99;82.80;100512.28;4987975;28;20046;-87
2021/12/26 08:07:42;;;;;;;26.75;23.95;;;;;;;5.73;82.71;100464.91;4971006;28;20089;-85
2021/12/26 08:10:10;;;;;;;28.27;24.35;;;;;;;5.72;83.12;100473.72;4970872;28;20527;-85
2021/12/26 08:12:39;;;;;;;27.70;24.67;;;;;;;5.92;82.89;100522.41;4970989;28;20054;-85
2021/12/26 08:15:07;;;;;;;27.52;23.98;;;;;;;4.92;83.10;100363.47;4970752;28;20085;-86
2021/12/26 08:17:35;;;;;;;28.33;25.20;;;;;;;5.20;83.58;100401.06;4970892;28;20046;-87
2021/12/26 08:20:06;;;;;;;27.23;24.42;;;;;;;5.90;83.59;100526.09;4988227;28;20057;-88
2021/12/26 08:22:33;;;;;;;28.95;25.27;;;;;;;4.80;83.67;100338.03;4971205;28;20146;-89
2021/12/26 08:25:00;;;;;;;27.98;24.63;;;;;;;5.06;84.01;100395.91;4970933;28;20082;-87
2021/12/26 08:27:26;;;;;;;28.60;25.02;;;;;;;5.35;83.76;100443.88;4988320;28;20133;-86
2021/12/26 08:29:53;;;;;;;28.00;24.80;;;;;;;5.71;84.75;100508.94;4970558;28;20050;-86
2021/12/26 08:32:20;;;;;;;31.10;26.55;;;;;;;5.55;84.61;100474.09;4970938;28;20144;-87
2021/12/26 08:34:47;;;;;;;29.70;25.80;;;;;;;5.86;84.42;100543.91;4969990;28;20054;-87
2021/12/26 08:37:14;;;;;;;29.55;25.67;;;;;;;5.91;84.47;100547.06;4969741;28;20038;-86
2021/12/26 08:39:42;;;;;;;29.80;25.75;;;;;;;5.91;84.92;100556.75;4969762;28;20137;-87
2021/12/26 08:42:11;;;;;;;28.85;25.52;;;;;;;5.68;84.68;100498.63;4970113;28;20129;-86
2021/12/26 08:44:38;;;;;;;30.10;26.60;;;;;;;5.96;84.23;100546.75;4968785;28;20062;-86
2021/12/26 08:47:10;;;;;;;28.67;25.35;;;;;;;6.01;84.05;100568.34;4970945;28;20150;-87
2021/12/26 08:49:46;;;;;;;29.85;26.40;;;;;;;6.00;84.21;100556.16;4971959;28;20061;-88
2021/12/26 08:52:12;;;;;;;29.42;24.65;;;;;;;4.09;84.53;100251.78;4989137;28;20057;-87
2021/12/26 08:54:39;;;;;;;30.20;25.55;;;;;;;4.86;84.53;100377.06;4994222;28;20078;-86
2021/12/26 08:57:07;;;;;;;29.77;25.77;;;;;;;4.21;84.71;100272.81;4979136;28;20494;-87
2021/12/26 08:59:41;;;;;;;30.13;26.05;;;;;;;4.26;84.30;100285.66;4978077;28;20089;-88
2021/12/26 09:02:08;;;;;;;27.48;24.55;;;;;;;4.40;84.37;100317.09;4978631;28;20057;-89
2021/12/26 09:04:37;;;;;;;29.30;24.60;;;;;;;4.00;84.52;100253.25;4979099;28;20585;-87
2021/12/26 09:07:05;;;;;;;27.95;24.77;;;;;;;4.04;84.90;100275.75;4981000;28;20688;-87
2021/12/26 09:09:32;;;;;;;27.70;24.70;;;;;;;4.30;85.17;100313.41;4983737;28;20391;-88
2021/12/26 09:11:59;;;;;;;29.65;26.40;;;;;;;5.12;84.82;100442.81;4978391;28;20050;-88
2021/12/26 09:14:30;;;;;;;28.48;25.33;;;;;;;4.03;85.16;100272.28;4992946;28;20109;-87
2021/12/26 09:17:01;;;;;;;28.60;24.73;;;;;;;4.66;85.76;100393.34;4991341;28;20065;-88
2021/12/26 09:19:28;;;;;;;27.35;24.40;;;;;;;4.75;85.60;100405.88;4974537;28;20301;-89
2021/12/26 09:22:06;;;;;;;30.10;26.27;;;;;;;4.57;85.81;100359.81;4974194;28;20294;-87
2021/12/26 09:24:33;;;;;;;27.15;23.60;;;;;;;4.60;85.94;100380.63;4974117;28;20561;-88
2021/12/26 09:26:59;;;;;;;31.15;25.17;;;;;;;4.25;86.21;100318.16;4973946;28;20066;-87
2021/12/26 09:29:27;;;;;;;29.98;24.77;;;;;;;4.71;86.14;100396.53;4991292;28;20046;-88
2021/12/26 09:31:56;;;;;;;33.88;27.67;;;;;;;4.50;86.47;100349.69;4974042;28;20149;-88
2021/12/26 09:34:23;;;;;;;29.77;25.02;;;;;;;4.53;86.30;100353.06;4991081;28;20077;-89
2021/12/26 10:00:30;;;;;;;29.23;24.08;;;;;;;5.38;85.70;100411.25;5128136;27;20427;-88
2021/12/26 10:03:15;;;;;;;;;;;;;;;6.22;86.21;100544.91;5127579;28;20544;-88
2021/12/26 10:05:55;;;;;;;29.67;24.55;;;;;;;5.33;86.33;100388.69;5128398;27;19919;-88
2021/12/26 10:08:25;;;;;;;29.85;23.33;;;;;;;5.63;86.26;100440.16;5128078;27;20039;-88
2021/12/26 10:11:12;;;;;;;30.10;25.02;;;;;;;5.15;86.17;100345.28;5127226;28;20093;-86
2021/12/26 10:13:42;;;;;;;30.75;24.75;;;;;;;4.71;86.07;100254.53;5129729;28;20283;-88
2021/12/26 10:16:09;;;;;;;28.45;24.85;;;;;;;4.49;85.97;100223.59;5129528;28;20472;-90
2021/12/26 10:18:42;;;;;;;30.20;25.58;;;;;;;4.84;86.51;100280.81;5126249;28;20047;-87
2021/12/26 10:21:37;;;;;;;30.58;24.27;;;;;;;4.97;86.74;100299.19;5125046;28;20047;-85
2021/12/26 10:24:15;;;;;;;28.70;23.27;;;;;;;6.46;86.66;100526.50;5124813;28;20467;-87
2021/12/26 10:26:46;;;;;;;27.02;23.88;;;;;;;5.78;86.90;100431.16;5125180;28;20555;-87
2021/12/26 10:29:20;;;;;;;27.85;24.23;;;;;;;5.40;86.66;100348.78;5126275;27;20079;-88
2021/12/26 10:32:00;;;;;;;28.02;24.98;;;;;;;4.87;86.17;100257.75;5125493;28;20043;-88
2021/12/26 10:34:32;;;;;;;28.13;24.30;;;;;;;5.50;86.43;100342.75;5124669;28;20406;-87
2021/12/26 10:37:02;;;;;;;30.10;25.33;;;;;;;4.86;86.39;100237.66;5124445;28;20538;-88
2021/12/26 10:39:38;;;;;;;27.13;23.88;;;;;;;5.04;86.13;100259.19;5124352;27;20039;-88
2021/12/26 10:42:10;;;;;;;29.25;24.92;;;;;;;5.46;86.57;100333.41;5125913;27;20092;-90
2021/12/26 10:44:44;;;;;;;27.65;24.73;;;;;;;5.44;86.02;100316.03;5124343;28;20112;-90
2021/12/26 10:47:20;;;;;;;29.52;24.98;;;;;;;5.00;85.70;100230.56;5126252;27;20543;-88
2021/12/26 10:49:52;;;;;;;27.55;24.55;;;;;;;5.28;85.58;100288.16;5124632;28;20190;-90
2021/12/26 10:52:27;;;;;;;27.05;24.17;;;;;;;5.82;85.21;100380.88;5124920;28;20548;-88
2021/12/26 10:55:11;;;;;;;28.65;24.67;;;;;;;5.98;85.68;100411.31;5124834;28;20135;-87
2021/12/26 10:57:43;;;;;;;29.23;23.88;;;;;;;5.30;85.73;100288.91;5124263;28;20051;-88
2021/12/26 11:00:12;;;;;;;29.63;25.45;;;;;;;6.28;85.96;100438.16;5115504;28;20140;-90
2021/12/26 11:02:42;;;;;;;28.10;24.40;;;;;;;6.07;85.54;100404.53;5109281;28;20055;-89
2021/12/26 11:05:17;;;;;;;26.55;23.55;;;;;;;6.67;85.20;100494.19;5109904;27;20067;-90
2021/12/26 11:07:47;;;;;;;26.13;23.00;;;;;;;5.92;84.77;100381.88;5111532;28;20051;-88
2021/12/26 11:10:41;;;;;;;26.55;22.65;;;;;;;5.83;84.98;100354.44;5110508;28;20086;-87
2021/12/26 11:13:17;;;;;;;25.65;22.95;;;;;;;5.99;85.37;100380.53;5105758;28;20093;-89
2021/12/26 11:15:46;;;;;;;27.00;23.73;;;;;;;6.19;85.39;100421.25;5111925;28;20043;-87
2021/12/26 11:18:16;;;;;;;27.55;24.55;;;;;;;5.11;85.33;100230.66;5110459;28;20057;-90
2021/12/26 11:21:06;;;;;;;28.25;25.20;;;;;;;6.87;85.86;100519.97;5110779;28;20051;-91
2021/12/26 11:23:35;;;;;;;33.33;26.38;;;;;;;6.90;85.94;100527.63;5110138;28;20494;-89
2021/12/26 11:26:10;;;;;;;29.10;24.50;;;;;;;5.86;85.46;100341.03;5110147;28;20096;-89
2021/12/26 11:28:41;;;;;;;31.13;27.73;;;;;;;5.34;85.41;100248.25;5109584;28;20079;-89
2021/12/26 11:31:11;;;;;;;27.88;24.77;;;;;;;5.73;85.47;100306.03;5109880;28;20055;-86
2021/12/26 11:33:38;;;;;;;24.98;22.27;;;;;;;5.23;85.25;100227.13;5110139;28;20082;-87
2021/12/26 11:36:09;;;;;;;25.02;21.92;;;;;;;5.88;84.62;100333.03;5110317;28;20499;-87
2021/12/26 11:38:37;;;;;;;23.75;20.73;;;;;;;4.96;84.38;100194.94;5111765;27;20068;-87
2021/12/26 11:41:07;;;;;;;21.70;19.40;;;;;;;5.52;84.44;100280.28;5111111;28;20105;-87
2021/12/26 11:44:02;;;;;;;22.48;19.30;;;;;;;6.92;84.91;100504.63;5111343;28;20100;-89
2021/12/26 11:47:10;;;;;;;22.75;19.73;;;;;;;6.96;84.53;100499.94;5111254;28;20048;-88
2021/12/26 11:50:01;;;;;;;25.15;22.08;;;;;;;6.93;84.44;100505.44;5030846;28;20049;-90
2021/12/26 11:52:37;;;;;;;23.70;20.60;;;;;;;7.00;84.53;100499.59;5031242;28;20052;-87